Flight Track Log - Related Links

Times and Time Zones

All times are in EDT time to prevent confusion due to time zone crossing. See the EJA941 flight status page for this flight to view local times or setup timezone preferences in your user account.

Time Position Orientation Groundspeed Altitude Reporting Facility
EDT Latitude Longitude Course Direction KTS MPH feet Rate Location/Type
Sun 11:38:53 AM 40.8167 -74.1500 270° West 205 236 1,600  Level New York TRACON
Sun 11:39:53 AM 40.8167 -74.2333 270° West 245 282 4,700 2,956 Climbing New York TRACON
Sun 11:42:18 AM 40.8200 -74.4811 271° West 304 350 11,700 2,680 Climbing New York Center
Sun 11:43:19 AM 40.8181 -74.6097 269° West 340 391 13,900 1,866 Climbing New York Center
Sun 11:44:00 AM 40.8000 -74.9992 270° West  Level FlightAware Approximate
Sun 11:44:17 AM 40.8133 -74.7467 267° West 374 430 15,400  Level New York Center
Sun 11:45:17 AM 40.8136 -74.8619 270° West 380 437 16,900 1,934 Climbing New York Center
Sun 11:46:18 AM 40.8056 -75.0286 266° West 387 445 19,300 2,281 Climbing New York Center
Sun 11:47:18 AM 40.7983 -75.1733 266° West 382 440 21,500 2,083 Climbing New York Center
Sun 11:48:19 AM 40.7767 -75.3008 257° West 390 449 23,500 2,186 Climbing New York Center
Sun 11:49:16 AM 40.7419 -75.4436 252° West 396 456 25,800 2,136 Climbing New York Center
Sun 11:50:17 AM 40.6928 -75.5828 245° Southwest 419 482 27,700 1,951 Climbing New York Center
Sun 11:51:19 AM 40.6414 -75.7186 244° Southwest 430 495 29,800 2,773 Climbing New York Center
Sun 11:52:16 AM 40.5894 -75.8569 244° Southwest 430 495 33,200 2,746 Climbing New York Center
Sun 11:53:17 AM 40.5358 -75.9894 242° Southwest 424 488 35,200 1,672 Climbing New York Center
Sun 11:54:18 AM 40.4839 -76.1275 244° Southwest 424 488 36,600 1,587 Climbing New York Center
Sun 11:55:18 AM 40.4317 -76.2625 243° Southwest 424 488 38,400 1,576 Climbing New York Center
Sun 11:56:16 AM 40.3772 -76.4000 243° Southwest 419 482 39,700 814 Climbing New York Center
Sun 11:57:16 AM 40.3553 -76.5561 260° West 424 488 40,000 149 Climbing New York Center
Sun 11:58:17 AM 40.3450 -76.7214 265° West 441 507 40,000  Level New York Center
Sun 11:59:17 AM 40.3342 -76.8894 265° West 462 532 40,000  Level New York Center
Sun 12:00:18 PM 40.3256 -77.0575 266° West 467 537 40,000  Level New York Center
Sun 12:02:33 PM 40.2989 -77.4333 265° West 462 532 40,000  Level Cleveland Center
Sun 12:03:33 PM 40.2903 -77.5861 266° West 450 518 40,000  Level Cleveland Center
Sun 12:04:33 PM 40.2800 -77.7444 265° West 440 506 40,000  Level Cleveland Center
Sun 12:05:33 PM 40.2694 -77.9164 265° West 453 521 40,000 500 Level Cleveland Center
Sun 12:06:33 PM 40.2711 -78.0797 271° West 460 529 41,000 950 Climbing Cleveland Center
Sun 12:07:33 PM 40.2744 -78.2428 272° West 460 529 41,900 950 Climbing Cleveland Center
Sun 12:08:33 PM 40.2800 -78.4086 273° West 460 529 42,900 550 Climbing Cleveland Center
Sun 12:09:33 PM 40.2831 -78.5744 271° West 460 529 43,000 50 Climbing Cleveland Center
Sun 12:10:33 PM 40.2878 -78.7431 272° West 460 529 43,000  Level Cleveland Center
Sun 12:11:33 PM 40.2906 -78.9119 271° West 460 529 43,000  Level Cleveland Center
Sun 12:12:33 PM 40.2928 -79.0833 271° West 460 529 43,000  Level Cleveland Center
Sun 12:13:33 PM 40.2972 -79.2575 272° West 465 535 43,000  Level Cleveland Center
Sun 12:14:33 PM 40.3011 -79.4425 272° West 465 535 43,000  Level Cleveland Center
Sun 12:15:33 PM 40.3050 -79.6139 272° West 470 541 43,000  Level Cleveland Center
Sun 12:16:33 PM 40.3061 -79.7881 271° West 475 547 43,000  Level Cleveland Center
Sun 12:17:33 PM 40.3072 -79.9597 271° West 475 547 43,000  Level Cleveland Center
Sun 12:18:33 PM 40.3081 -80.1175 270° West 484 557 43,000  Level Cleveland Center
Sun 12:19:33 PM 40.3128 -80.3081 272° West 477 549 43,000  Level Cleveland Center
Sun 12:20:33 PM 40.3131 -80.4825 270° West 477 549 43,000  Level Cleveland Center
Sun 12:21:33 PM 40.3131 -80.6567 270° West 477 549 43,000  Level Cleveland Center
Sun 12:23:15 PM 40.3131 -80.9425 270° West 480 552 43,000  Level Indianapolis Center
Sun 12:24:16 PM 40.3136 -81.1194 270° West 482 555 43,000  Level Indianapolis Center
Sun 12:25:18 PM 40.3131 -81.2975 270° West 483 556 43,000  Level Indianapolis Center
Sun 12:26:19 PM 40.3125 -81.4747 270° West 481 554 43,000  Level Indianapolis Center
Sun 12:27:21 PM 40.3122 -81.6517 270° West 479 551 43,000 -195 Level Indianapolis Center
Sun 12:28:22 PM 40.3117 -81.8278 270° West 479 551 42,600 -878 Descending Indianapolis Center
Sun 12:29:24 PM 40.3111 -81.9997 270° West 470 541 41,200 -1,366 Descending Indianapolis Center
Sun 12:30:25 PM 40.3094 -82.1644 269° West 451 519 39,800 -1,561 Descending Indianapolis Center
Sun 12:31:27 PM 40.3078 -82.3319 269° West 456 525 38,000 -1,742 Descending Indianapolis Center
Sun 12:32:29 PM 40.3058 -82.5033 269° West 466 536 36,200 -1,902 Descending Indianapolis Center
Sun 12:33:30 PM 40.3042 -82.7000 269° West 458 527 34,100 -1,805 Descending Indianapolis Center
Sun 12:34:32 PM 40.3019 -82.8417 269° West 452 520 32,500 -1,742 Descending Indianapolis Center
Sun 12:35:34 PM 40.2989 -83.0325 269° West 448 516 30,500 -1,220 Descending Indianapolis Center
Sun 12:36:35 PM 40.2961 -83.1983 269° West 453 521 30,000 -244 Descending Indianapolis Center
Sun 12:37:37 PM 40.2925 -83.3692 268° West 465 535 30,000  Level Indianapolis Center
Sun 12:38:39 PM 40.2822 -83.5456 266° West 480 552 30,000  Level Indianapolis Center
Sun 12:39:40 PM 40.2647 -83.7208 263° West 486 559 30,000  Level Indianapolis Center
Sun 12:40:42 PM 40.2458 -83.8994 262° West 496 571 30,000  Level Indianapolis Center
Sun 12:41:44 PM 40.2269 -84.0814 262° West 505 581 30,000  Level Indianapolis Center
Sun 12:42:46 PM 40.1931 -84.2944 258° West 514 592 30,000 -293 Level Indianapolis Center
Sun 12:43:47 PM 40.1578 -84.4722 255° West 506 582 29,400 -1,122 Descending Indianapolis Center
Sun 12:44:49 PM 40.1292 -84.6444 258° West 485 558 27,700 -1,935 Descending Indianapolis Center
Sun 12:45:51 PM 40.1150 -84.8106 264° West 456 525 25,400 -2,371 Descending Indianapolis Center
Sun 12:46:53 PM 40.1014 -84.9703 264° West 450 518 22,800 -2,468 Descending Indianapolis Center
Sun 12:47:55 PM 40.0875 -85.1269 263° West 434 499 20,300 -2,683 Descending Indianapolis Center
Sun 12:48:56 PM 40.0722 -85.3058 264° West 425 489 17,300 -2,634 Descending Indianapolis Center
Sun 12:49:58 PM 40.0594 -85.4525 264° West 405 466 14,900 -2,177 Descending Indianapolis Center
Sun 12:51:00 PM 40.0489 -85.5783 264° West 352 405 12,800 -2,081 Descending Indianapolis Center
Sun 12:52:02 PM 40.0386 -85.6789 262° West 284 327 10,600 -1,839 Descending Indianapolis Center
Sun 12:53:04 PM 40.0300 -85.7797 264° West 278 320 9,000 -780 Descending Indianapolis Center
Sun 12:54:05 PM 40.0208 -85.8639 262° West 239 275 9,000 -537 Level Indianapolis Center
Sun 12:55:07 PM 39.9931 -85.9347 243° Southwest 229 264 7,900 -1,403 Descending Indianapolis Center
Sun 12:56:09 PM 39.9425 -85.9983 224° Southwest 218 251 6,100 -1,403 Descending Indianapolis Center
Sun 12:57:11 PM 39.8992 -86.0522 224° Southwest 216 249 5,000 -677 Descending Indianapolis Center
Sun 12:58:13 PM 39.8603 -86.0992 223° Southwest 203 234 4,700 -595 Descending Indianapolis Center
Sun 12:59:02 PM 39.8333 -86.1333 224° Southwest 174 200 3,900 -932 Descending Indianapolis TRACON
Sun 12:59:56 PM 39.8000 -86.1667 218° Southwest 179 206 3,100 -850 Descending Indianapolis TRACON
Sun 01:01:02 PM 39.7667 -86.2167 229° Southwest 127 146 2,200 -762 Descending Indianapolis TRACON
Sun 01:02:02 PM 39.7500 -86.2500 237° Southwest 133 153 1,500 -700 Descending Indianapolis TRACON
Sun 01:05:00 PM 39.7167 -86.2833 229° Southwest  Level FlightAware Approximate

Login

Don't have an account? Register now (free) for customized features, flight alerts, and more!